Time;durP1;ratioP1;P1;durP2;ratioP2;P2;SDS_P1;SDS_P2;PMS_P1;PMS_P2;Temp;Humidity;BMP_temperature;BMP_pressure;BME280_temperature;BME280_humidity;BME280_pressure;Samples;Min_cycle;Max_cycle;Signal;HPM_P1;HPM_P2
2023/05/07 00:01:05;;;;;;;3.53;2.27;;;19.00;46.60;;;;;;20808;6735;117481;-76
2023/05/07 00:03:39;;;;;;;2.47;2.20;;;18.70;47.20;;;;;;20704;6727;305586;-77
2023/05/07 00:06:14;;;;;;;2.53;2.33;;;18.80;46.50;;;;;;20654;6753;277985;-77
2023/05/07 00:08:50;;;;;;;2.47;2.10;;;19.20;47.10;;;;;;20510;6783;308582;-76
2023/05/07 00:11:27;;;;;;;2.50;2.30;;;19.50;47.00;;;;;;20679;6776;120583;-78
2023/05/07 00:14:07;;;;;;;2.27;2.17;;;19.30;47.40;;;;;;20799;6763;117263;-76
2023/05/07 00:16:39;;;;;;;2.33;2.12;;;18.90;47.80;;;;;;20521;6780;279112;-77
2023/05/07 00:19:15;;;;;;;3.90;2.50;;;19.00;47.50;;;;;;20838;6753;117164;-76
2023/05/07 00:21:53;;;;;;;2.63;2.43;;;18.80;48.00;;;;;;20483;6753;308566;-77
2023/05/07 00:24:27;;;;;;;2.72;2.53;;;19.10;47.00;;;;;;20607;6751;333909;-77
2023/05/07 00:27:02;;;;;;;3.60;2.30;;;19.10;47.00;;;;;;20924;6727;117128;-77
2023/05/07 00:29:38;;;;;;;2.43;2.23;;;18.50;48.20;;;;;;20918;6730;118026;-77
2023/05/07 00:32:14;;;;;;;2.10;2.00;;;18.50;48.20;;;;;;20700;6745;117788;-77
2023/05/07 00:34:50;;;;;;;2.33;2.20;;;18.20;48.80;;;;;;20835;6751;118197;-77
2023/05/07 00:37:25;;;;;;;2.80;2.20;;;18.00;49.30;;;;;;20886;6738;117133;-80
2023/05/07 00:40:04;;;;;;;2.37;2.27;;;17.90;49.80;;;;;;20838;6751;117611;-77
2023/05/07 00:42:37;;;;;;;3.03;2.33;;;17.80;50.10;;;;;;20558;6766;278300;-78
2023/05/07 00:45:12;;;;;;;2.53;2.33;;;18.10;48.60;;;;;;20670;6739;305967;-77
2023/05/07 00:47:51;;;;;;;2.40;2.30;;;18.60;47.50;;;;;;20622;6751;307135;-77
2023/05/07 00:50:24;;;;;;;2.60;2.40;;;18.90;46.70;;;;;;20844;6738;116899;-77
2023/05/07 00:53:00;;;;;;;2.60;2.50;;;18.70;47.70;;;;;;20619;6751;329589;-77
2023/05/07 00:55:35;;;;;;;2.40;2.30;;;18.80;47.60;;;;;;20838;6751;117590;-77
2023/05/07 00:58:11;;;;;;;2.37;2.27;;;18.70;47.90;;;;;;20879;6736;117574;-77
2023/05/07 01:00:46;;;;;;;2.20;2.10;;;18.40;48.60;;;;;;20852;6723;117179;-77
2023/05/07 01:03:24;;;;;;;2.73;2.17;;;18.00;49.90;;;;;;20922;6723;119782;-77
2023/05/07 01:06:00;;;;;;;2.63;2.33;;;18.00;49.50;;;;;;20710;6739;306363;-76
2023/05/07 01:08:39;;;;;;;3.60;2.50;;;18.20;48.70;;;;;;20861;6738;117387;-77
2023/05/07 01:11:13;;;;;;;2.50;2.40;;;18.10;49.00;;;;;;20793;6735;117484;-77
2023/05/07 01:13:48;;;;;;;2.83;2.40;;;18.00;49.30;;;;;;20695;6726;305709;-77
2023/05/07 01:16:24;;;;;;;2.73;2.53;;;18.30;48.00;;;;;;20943;6726;118553;-77
2023/05/07 01:18:59;;;;;;;2.60;2.40;;;18.30;48.40;;;;;;20868;6745;117081;-77
2023/05/07 01:21:35;;;;;;;2.70;2.60;;;18.00;49.00;;;;;;20410;6783;309974;-77
2023/05/07 01:24:10;;;;;;;3.57;2.40;;;18.30;48.70;;;;;;20887;6749;120561;-77
2023/05/07 01:26:46;;;;;;;2.77;2.50;;;18.20;49.30;;;;;;20807;6768;118053;-77
2023/05/07 01:29:22;;;;;;;4.87;3.30;;;18.20;50.60;;;;;;20552;6775;278125;-77
2023/05/07 01:31:58;;;;;;;4.85;3.00;;;18.20;50.60;;;;;;20535;6738;278025;-77
2023/05/07 01:34:33;;;;;;;3.40;3.20;;;18.50;50.20;;;;;;20635;6738;306452;-77
2023/05/07 01:37:09;;;;;;;3.30;3.10;;;18.60;49.70;;;;;;20744;6780;117488;-77
2023/05/07 01:39:45;;;;;;;3.33;3.13;;;17.90;50.80;;;;;;20861;6745;116969;-77
2023/05/07 01:42:21;;;;;;;3.50;3.20;;;17.90;50.80;;;;;;20590;6837;117713;-77
2023/05/07 01:44:56;;;;;;;3.53;3.23;;;17.60;51.50;;;;;;20786;6768;116942;-77
2023/05/07 01:47:32;;;;;;;3.03;2.90;;;17.30;52.00;;;;;;20815;6765;117761;-77
2023/05/07 01:50:08;;;;;;;4.60;3.40;;;17.20;52.60;;;;;;20596;6759;277968;-77
2023/05/07 01:52:46;;;;;;;3.80;3.50;;;17.50;52.40;;;;;;20584;6759;307031;-77
2023/05/07 01:55:19;;;;;;;3.70;3.50;;;17.90;51.60;;;;;;20612;6759;282652;-77
2023/05/07 01:57:54;;;;;;;3.17;2.97;;;18.10;50.70;;;;;;20828;6759;117543;-77
2023/05/07 02:00:30;;;;;;;3.60;3.30;;;17.90;51.10;;;;;;20547;6759;295383;-79
2023/05/07 02:03:05;;;;;;;3.47;3.17;;;18.00;51.30;;;;;;20782;6768;121338;-78
2023/05/07 02:05:42;;;;;;;3.23;3.03;;;17.90;51.70;;;;;;20783;6768;118373;-79
2023/05/07 02:08:19;;;;;;;3.40;3.10;;;17.30;52.50;;;;;;20901;6734;117125;-77
2023/05/07 02:10:54;;;;;;;4.73;3.67;;;17.30;52.50;;;;;;20822;6723;117367;-78
2023/05/07 02:13:30;;;;;;;4.00;3.70;;;17.10;52.90;;;;;;20887;6739;117916;-77
2023/05/07 02:16:06;;;;;;;4.17;3.80;;;16.90;53.00;;;;;;20834;6753;120961;-77
2023/05/07 02:18:42;;;;;;;4.80;3.80;;;16.80;53.10;;;;;;20866;6742;123678;-77
2023/05/07 02:21:18;;;;;;;3.67;3.37;;;16.70;53.40;;;;;;20785;6738;117358;-77
2023/05/07 02:23:53;;;;;;;4.30;4.00;;;16.70;53.50;;;;;;20590;6765;283336;-77
2023/05/07 02:26:29;;;;;;;3.97;3.67;;;17.00;52.10;;;;;;20858;6738;120547;-77
2023/05/07 02:29:05;;;;;;;4.70;4.40;;;17.00;52.20;;;;;;20669;6738;306274;-77
2023/05/07 02:31:41;;;;;;;4.20;4.00;;;17.70;50.40;;;;;;20407;6783;293700;-77
2023/05/07 02:34:16;;;;;;;4.70;4.20;;;17.70;50.30;;;;;;20623;6753;308028;-77
2023/05/07 02:36:52;;;;;;;3.90;3.60;;;18.00;49.50;;;;;;20773;6765;123435;-77
2023/05/07 02:39:28;;;;;;;4.20;3.90;;;17.80;50.00;;;;;;20887;6738;120936;-77
2023/05/07 02:42:03;;;;;;;3.40;3.30;;;17.50;50.70;;;;;;20688;6751;119461;-77
2023/05/07 02:44:39;;;;;;;3.80;3.60;;;17.00;52.00;;;;;;20864;6738;117034;-77
2023/05/07 02:47:15;;;;;;;4.50;4.10;;;16.90;51.90;;;;;;20674;6736;307404;-77
2023/05/07 02:49:51;;;;;;;4.22;3.92;;;17.60;52.10;;;;;;20712;6727;306279;-77
2023/05/07 02:52:27;;;;;;;3.73;3.43;;;17.60;51.40;;;;;;20706;6795;118831;-77
2023/05/07 02:55:03;;;;;;;3.00;2.90;;;17.50;51.40;;;;;;20832;6753;117080;-77
2023/05/07 02:57:38;;;;;;;4.05;3.67;;;17.10;51.80;;;;;;20624;6753;290207;-77
2023/05/07 03:00:14;;;;;;;3.50;3.30;;;17.30;50.70;;;;;;20772;6768;118244;-77
2023/05/07 03:02:50;;;;;;;3.80;3.50;;;17.10;51.20;;;;;;20605;6753;330531;-77
2023/05/07 03:05:25;;;;;;;5.43;3.60;;;17.30;50.70;;;;;;20794;6768;118372;-79
2023/05/07 03:08:04;;;;;;;3.65;3.45;;;17.30;50.80;;;;;;20612;6765;307175;-79
2023/05/07 03:10:37;;;;;;;3.83;3.50;;;17.30;50.80;;;;;;20784;6751;124011;-77
2023/05/07 03:13:13;;;;;;;4.10;3.80;;;17.20;51.30;;;;;;20533;6780;308031;-76
2023/05/07 03:15:48;;;;;;;4.40;4.00;;;17.40;50.80;;;;;;20875;6741;116929;-76
2023/05/07 03:18:24;;;;;;;3.97;3.67;;;17.20;50.90;;;;;;20631;6751;281064;-76
2023/05/07 03:21:01;;;;;;;4.20;3.80;;;17.30;50.60;;;;;;20658;6723;306720;-78
2023/05/07 03:23:37;;;;;;;3.93;3.50;;;17.30;51.20;;;;;;20862;6745;117765;-76
2023/05/07 03:26:13;;;;;;;4.00;3.70;;;17.30;51.20;;;;;;20646;6745;296580;-76
2023/05/07 03:28:48;;;;;;;6.33;3.70;;;17.30;51.60;;;;;;20845;6745;117060;-76
2023/05/07 03:31:24;;;;;;;3.83;3.50;;;17.00;52.00;;;;;;20764;6744;118803;-76
2023/05/07 03:33:59;;;;;;;4.28;3.60;;;16.70;52.50;;;;;;20657;6744;335628;-76
2023/05/07 03:36:35;;;;;;;3.70;3.40;;;16.80;52.90;;;;;;20638;6744;287140;-77
2023/05/07 03:39:10;;;;;;;3.90;3.60;;;17.00;52.10;;;;;;20861;6744;117463;-77
2023/05/07 03:41:46;;;;;;;4.25;3.87;;;16.90;52.30;;;;;;20471;6759;344452;-76
2023/05/07 03:44:22;;;;;;;4.17;3.80;;;16.90;52.30;;;;;;20858;6745;118434;-76
2023/05/07 03:46:58;;;;;;;3.85;3.55;;;16.80;52.10;;;;;;20657;6744;306637;-76
2023/05/07 03:49:34;;;;;;;4.50;3.57;;;16.80;52.20;;;;;;20850;6745;117507;-76
2023/05/07 03:52:09;;;;;;;4.37;4.07;;;16.70;52.60;;;;;;20491;6745;287145;-76
2023/05/07 03:54:46;;;;;;;4.00;3.80;;;17.00;51.70;;;;;;20629;6745;398820;-76
2023/05/07 03:57:21;;;;;;;4.60;4.20;;;17.00;51.70;;;;;;20653;6745;277238;-77
2023/05/07 03:59:57;;;;;;;4.57;4.20;;;17.20;51.20;;;;;;20653;6745;307135;-76
2023/05/07 04:02:33;;;;;;;4.80;4.40;;;17.40;50.60;;;;;;20632;6745;307061;-77
2023/05/07 04:05:09;;;;;;;5.00;4.60;;;17.40;50.60;;;;;;20648;6745;334227;-76
2023/05/07 04:07:44;;;;;;;4.13;3.83;;;17.50;50.40;;;;;;20865;6745;123266;-76
2023/05/07 04:10:20;;;;;;;5.37;4.62;;;17.10;50.90;;;;;;20614;6745;312748;-76
2023/05/07 04:12:56;;;;;;;4.13;3.90;;;17.10;50.80;;;;;;20845;6745;116885;-79
2023/05/07 04:15:31;;;;;;;5.20;4.80;;;16.80;51.40;;;;;;20649;6745;313153;-77
2023/05/07 04:18:06;;;;;;;5.10;4.70;;;16.80;51.30;;;;;;20648;6745;305572;-76
2023/05/07 04:20:42;;;;;;;4.30;3.90;;;17.00;50.90;;;;;;20784;6745;119561;-77
2023/05/07 04:23:18;;;;;;;4.62;4.32;;;16.80;51.50;;;;;;20645;6745;339286;-77
2023/05/07 04:25:54;;;;;;;4.60;4.40;;;16.90;52.20;;;;;;20860;6745;122679;-77
2023/05/07 04:28:29;;;;;;;4.20;4.00;;;16.70;52.50;;;;;;20780;6760;146627;-77
2023/05/07 04:31:04;;;;;;;4.30;3.90;;;16.40;52.70;;;;;;20731;6760;117541;-77
2023/05/07 04:36:50;;;;;;;4.57;3.73;;;15.90;53.50;;;;;;20832;6745;116875;-76
2023/05/07 04:39:25;;;;;;;4.40;4.12;;;15.70;53.90;;;;;;20651;6745;311117;-76
2023/05/07 04:42:01;;;;;;;4.25;4.00;;;16.00;53.30;;;;;;20500;6745;307822;-76
2023/05/07 04:44:37;;;;;;;3.70;3.50;;;16.40;52.70;;;;;;20641;6744;276893;-77
2023/05/07 04:47:12;;;;;;;3.33;3.13;;;16.70;52.20;;;;;;20874;6744;117309;-76
2023/05/07 04:49:48;;;;;;;3.73;3.53;;;16.60;52.70;;;;;;20811;6762;117185;-76
2023/05/07 04:52:23;;;;;;;3.72;3.53;;;16.30;53.30;;;;;;20446;6809;304850;-79
2023/05/07 04:54:59;;;;;;;3.57;3.37;;;16.50;53.10;;;;;;20884;6738;117551;-76
2023/05/07 04:57:34;;;;;;;3.40;3.10;;;16.50;53.40;;;;;;20810;6759;120152;-76
2023/05/07 05:00:13;;;;;;;3.03;2.77;;;16.30;53.90;;;;;;20861;6738;116882;-76
2023/05/07 05:02:46;;;;;;;3.33;3.22;;;16.20;54.40;;;;;;20655;6736;335667;-76
2023/05/07 05:05:21;;;;;;;3.30;3.10;;;16.50;53.80;;;;;;20666;6738;281409;-76
2023/05/07 05:07:57;;;;;;;3.27;3.00;;;16.90;53.00;;;;;;20878;6738;117869;-76
2023/05/07 05:10:32;;;;;;;3.93;3.57;;;16.90;53.20;;;;;;20884;6723;118361;-76
2023/05/07 05:13:08;;;;;;;3.50;3.30;;;16.80;53.10;;;;;;20885;6738;117205;-76
2023/05/07 05:15:44;;;;;;;3.70;3.28;;;16.60;54.00;;;;;;20594;6765;283524;-76
2023/05/07 05:18:20;;;;;;;3.57;3.37;;;17.30;52.90;;;;;;20591;6762;306271;-77
2023/05/07 05:20:57;;;;;;;3.75;3.45;;;17.30;52.90;;;;;;20553;6750;338679;-75
2023/05/07 05:23:32;;;;;;;3.57;3.23;;;17.60;52.10;;;;;;20928;6723;116981;-79
2023/05/07 05:26:09;;;;;;;3.80;3.57;;;17.70;52.20;;;;;;20631;6751;305881;-78
2023/05/07 05:28:44;;;;;;;3.90;3.70;;;17.70;52.20;;;;;;20648;6738;306608;-79
2023/05/07 05:31:21;;;;;;;3.60;3.40;;;18.20;51.50;;;;;;20469;6783;313902;-79
2023/05/07 05:33:56;;;;;;;3.53;3.23;;;18.20;51.50;;;;;;20841;6768;117189;-79
2023/05/07 05:36:32;;;;;;;3.47;3.27;;;18.00;51.90;;;;;;20856;6765;118811;-77
2023/05/07 05:39:08;;;;;;;3.60;3.30;;;17.70;52.60;;;;;;20593;6768;289520;-80
2023/05/07 05:41:45;;;;;;;33.60;17.20;;;17.80;51.80;;;;;;20433;6766;280182;-85
2023/05/07 05:44:23;;;;;;;6.20;5.50;;;18.10;51.50;;;;;;20697;6739;278071;-83
2023/05/07 05:47:00;;;;;;;3.60;3.30;;;18.30;53.30;;;;;;20657;6738;280660;-80
2023/05/07 05:49:39;;;;;;;3.27;3.07;;;18.70;51.80;;;;;;20691;6731;306251;-84
2023/05/07 05:52:14;;;;;;;3.40;3.10;;;18.90;51.20;;;;;;20543;6738;290796;-80
2023/05/07 05:54:52;;;;;;;3.20;3.00;;;19.40;50.00;;;;;;20571;6768;311644;-82
2023/05/07 05:57:27;;;;;;;3.10;2.90;;;19.40;50.00;;;;;;20585;6770;298371;-82
2023/05/07 06:00:04;;;;;;;3.50;3.30;;;19.60;49.70;;;;;;20569;6768;336056;-80
2023/05/07 06:02:39;;;;;;;4.70;3.40;;;19.80;49.00;;;;;;20811;6759;141596;-77
2023/05/07 06:05:18;;;;;;;3.40;3.10;;;19.60;49.90;;;;;;20948;6723;117847;-78
2023/05/07 06:07:53;;;;;;;3.80;3.50;;;19.20;50.70;;;;;;20684;6738;277920;-82
2023/05/07 06:10:30;;;;;;;3.90;3.60;;;19.50;50.10;;;;;;20554;6750;316316;-77
2023/05/07 06:13:05;;;;;;;3.07;2.87;;;19.50;50.00;;;;;;20881;6738;117276;-76
2023/05/07 06:15:41;;;;;;;3.97;3.57;;;19.40;50.70;;;;;;20841;6751;117439;-76
2023/05/07 06:18:16;;;;;;;3.83;3.50;;;19.20;51.40;;;;;;20883;6738;117478;-76
2023/05/07 06:20:54;;;;;;;4.10;3.75;;;19.10;51.90;;;;;;20505;6764;283674;-75
2023/05/07 06:23:48;;;;;;;;;;;;;;;;;;;;;
2023/05/07 06:26:13;;;;;;;4.37;3.50;;;19.70;50.40;;;;;;20877;6780;116995;-77
2023/05/07 06:32:16;;;;;;;3.80;3.50;;;20.00;50.20;;;;;;20422;6753;279572;-77
2023/05/07 06:34:51;;;;;;;4.22;3.83;;;20.50;49.60;;;;;;20615;6751;345170;-76
2023/05/07 06:37:27;;;;;;;3.80;3.50;;;20.90;49.00;;;;;;20595;6766;307435;-78
2023/05/07 06:40:03;;;;;;;3.57;3.37;;;21.40;48.80;;;;;;20887;6738;117393;-77
2023/05/07 06:42:38;;;;;;;4.43;3.72;;;21.60;49.90;;;;;;20617;6750;277183;-75
2023/05/07 06:45:14;;;;;;;3.27;3.07;;;21.90;46.90;;;;;;20901;6738;117888;-75
2023/05/07 06:47:49;;;;;;;3.73;3.43;;;22.10;48.60;;;;;;20762;6778;118496;-76
2023/05/07 06:50:26;;;;;;;3.50;3.30;;;22.10;48.40;;;;;;20792;6774;117017;-76
2023/05/07 06:53:03;;;;;;;3.92;3.65;;;22.10;48.90;;;;;;20660;6746;339400;-76
2023/05/07 06:55:38;;;;;;;3.33;3.17;;;22.50;46.20;;;;;;20906;6741;121147;-75
2023/05/07 06:58:17;;;;;;;4.13;3.83;;;22.80;44.50;;;;;;20615;6756;306428;-80
2023/05/07 07:00:50;;;;;;;3.87;3.67;;;22.80;44.50;;;;;;20770;6747;117384;-77
2023/05/07 07:03:27;;;;;;;5.07;3.87;;;22.70;45.50;;;;;;20827;6753;117196;-77
2023/05/07 07:06:03;;;;;;;4.03;3.73;;;22.50;45.80;;;;;;20681;6735;306984;-79
2023/05/07 07:08:42;;;;;;;3.90;3.50;;;22.50;45.50;;;;;;20921;6723;116949;-77
2023/05/07 07:11:27;;;;;;;5.13;3.70;;;22.50;44.80;;;;;;20747;6751;120450;-78
2023/05/07 07:13:54;;;;;;;4.17;3.77;;;21.90;46.40;;;;;;20891;6738;117127;-80
2023/05/07 07:16:29;;;;;;;4.00;3.77;;;21.90;45.80;;;;;;20681;6736;276881;-80
2023/05/07 07:19:05;;;;;;;4.20;3.60;;;22.10;45.00;;;;;;20683;6738;277492;-80
2023/05/07 07:21:42;;;;;;;4.10;3.80;;;22.30;44.70;;;;;;20466;6764;337987;-80
2023/05/07 07:24:20;;;;;;;3.50;3.30;;;22.60;45.30;;;;;;20750;6723;279916;-77
2023/05/07 07:26:55;;;;;;;3.40;3.20;;;22.90;44.40;;;;;;20878;6738;121210;-74
2023/05/07 07:29:29;;;;;;;2.90;2.70;;;22.80;45.20;;;;;;20893;6738;117373;-74
2023/05/07 07:32:05;;;;;;;2.93;2.73;;;22.70;46.40;;;;;;20465;6750;280087;-75
2023/05/07 07:34:42;;;;;;;3.47;3.17;;;23.60;44.40;;;;;;20705;6723;316194;-75
2023/05/07 07:37:20;;;;;;;3.50;3.20;;;23.60;44.10;;;;;;20731;6723;306245;-74
2023/05/07 07:39:53;;;;;;;3.13;2.90;;;24.10;43.20;;;;;;20849;6751;117081;-75
2023/05/07 07:42:29;;;;;;;3.20;3.10;;;24.20;44.10;;;;;;20871;6730;117009;-75
2023/05/07 07:45:04;;;;;;;4.30;2.90;;;24.00;44.80;;;;;;20886;6738;117409;-75
2023/05/07 07:47:40;;;;;;;3.47;3.28;;;23.90;45.70;;;;;;20680;6736;334022;-75
2023/05/07 07:50:16;;;;;;;2.73;2.53;;;24.10;44.40;;;;;;20859;6736;116792;-75
2023/05/07 07:52:52;;;;;;;2.97;2.43;;;24.00;45.00;;;;;;20865;6738;120024;-75
2023/05/07 07:55:31;;;;;;;3.40;3.20;;;24.10;45.40;;;;;;20627;6751;311405;-76
2023/05/07 07:58:05;;;;;;;3.07;2.87;;;24.10;45.30;;;;;;20676;6738;276861;-74
2023/05/07 08:00:41;;;;;;;3.00;2.80;;;24.50;43.70;;;;;;20469;6779;309867;-75
2023/05/07 08:03:17;;;;;;;2.83;2.63;;;24.70;44.40;;;;;;20817;6759;116976;-71
2023/05/07 08:05:53;;;;;;;3.10;2.80;;;24.70;44.40;;;;;;20653;6744;306504;-75
2023/05/07 08:08:28;;;;;;;3.50;3.20;;;24.80;44.10;;;;;;20886;6729;120937;-71
2023/05/07 08:11:04;;;;;;;3.00;2.80;;;24.60;44.60;;;;;;20756;6744;118297;-75
2023/05/07 08:13:40;;;;;;;3.00;2.80;;;24.30;45.10;;;;;;20658;6744;311547;-73
2023/05/07 08:16:15;;;;;;;2.90;2.70;;;24.30;44.40;;;;;;20703;6729;277060;-74
2023/05/07 08:18:51;;;;;;;3.10;2.83;;;24.60;44.10;;;;;;20857;6744;125824;-72
2023/05/07 08:21:26;;;;;;;3.00;2.80;;;24.60;44.70;;;;;;20765;6744;117762;-74
2023/05/07 08:24:02;;;;;;;3.30;3.10;;;24.40;45.50;;;;;;20935;6723;117687;-73
2023/05/07 08:26:39;;;;;;;3.10;2.80;;;24.30;46.10;;;;;;20661;6738;294807;-75
2023/05/07 08:32:48;;;;;;;3.30;2.57;;;25.30;43.30;;;;;;20812;6753;122915;-72
2023/05/07 08:35:25;;;;;;;3.67;3.40;;;25.40;44.00;;;;;;20639;6750;277473;-73
2023/05/07 08:38:00;;;;;;;3.50;3.20;;;25.60;42.60;;;;;;20651;6801;281045;-70
2023/05/07 08:40:42;;;;;;;3.60;3.30;;;26.10;41.70;;;;;;20871;6723;117367;-70
2023/05/07 08:43:14;;;;;;;3.10;2.90;;;26.30;42.40;;;;;;20894;6736;117068;-69
2023/05/07 08:45:50;;;;;;;3.90;3.17;;;26.20;43.00;;;;;;20666;6738;306413;-71
2023/05/07 08:48:26;;;;;;;2.60;2.50;;;26.50;40.90;;;;;;20887;6738;116909;-74
2023/05/07 08:51:01;;;;;;;2.87;2.67;;;26.60;41.80;;;;;;20565;6751;278701;-74
2023/05/07 08:53:45;;;;;;;2.93;2.80;;;27.00;40.00;;;;;;21268;6514;85069;-73
2023/05/07 08:56:10;;;;;;;2.60;2.47;;;27.00;41.00;;;;;;20951;6765;116855;-74
2023/05/07 08:58:38;;;;;;;2.65;2.55;;;27.00;41.60;;;;;;20954;6765;117031;-74
2023/05/07 09:01:07;;;;;;;2.80;2.60;;;26.70;41.70;;;;;;20855;6778;117273;-73
2023/05/07 09:03:37;;;;;;;2.60;2.40;;;26.70;41.60;;;;;;20752;6834;118660;-73
2023/05/07 09:06:03;;;;;;;2.80;2.60;;;26.60;41.90;;;;;;20751;6834;117165;-74
2023/05/07 09:08:28;;;;;;;2.50;2.40;;;26.50;42.20;;;;;;20732;6839;117335;-72
2023/05/07 09:10:54;;;;;;;3.03;2.85;;;26.50;42.20;;;;;;20481;6842;278160;-75
2023/05/07 09:13:20;;;;;;;3.33;2.57;;;26.80;39.50;;;;;;20719;6842;121646;-73
2023/05/07 09:15:45;;;;;;;2.80;2.60;;;27.00;40.70;;;;;;20504;6837;308095;-75
2023/05/07 09:18:12;;;;;;;2.67;2.57;;;27.30;39.30;;;;;;20713;6837;117150;-76
2023/05/07 09:20:37;;;;;;;3.10;2.90;;;27.50;40.20;;;;;;20661;6851;121066;-73
2023/05/07 09:23:03;;;;;;;2.87;2.70;;;27.50;40.60;;;;;;20659;6856;117861;-72
2023/05/07 09:25:29;;;;;;;3.33;3.03;;;27.40;40.90;;;;;;20746;6829;117774;-71
2023/05/07 09:27:54;;;;;;;2.60;2.40;;;27.30;40.80;;;;;;20679;6856;117493;-73
2023/05/07 09:30:20;;;;;;;2.90;2.70;;;27.10;40.90;;;;;;20767;6829;116932;-75
2023/05/07 09:32:45;;;;;;;2.70;2.60;;;27.00;41.40;;;;;;20534;6829;278923;-72
2023/05/07 09:35:16;;;;;;;3.10;2.80;;;27.10;41.10;;;;;;20554;6829;300599;-74
2023/05/07 09:37:40;;;;;;;3.07;2.87;;;27.40;39.50;;;;;;20505;6842;309214;-74
2023/05/07 09:40:07;;;;;;;2.50;2.40;;;27.70;39.30;;;;;;20703;6848;117381;-75
2023/05/07 09:42:32;;;;;;;2.60;2.50;;;27.70;39.90;;;;;;20667;6849;117393;-74
2023/05/07 09:44:59;;;;;;;2.60;2.40;;;27.60;39.90;;;;;;20456;6856;306223;-77
2023/05/07 09:47:25;;;;;;;2.60;2.40;;;27.70;37.60;;;;;;20717;6842;117636;-77
2023/05/07 09:49:50;;;;;;;2.40;2.30;;;27.70;38.90;;;;;;20506;6842;304630;-72
2023/05/07 09:52:16;;;;;;;2.60;2.40;;;28.10;37.20;;;;;;20503;6842;336180;-73
2023/05/07 09:54:43;;;;;;;2.63;2.33;;;28.10;37.10;;;;;;20704;6840;118059;-73
2023/05/07 09:57:07;;;;;;;2.60;2.40;;;28.10;38.30;;;;;;20518;6840;306755;-72
2023/05/07 09:59:33;;;;;;;2.43;2.20;;;28.30;37.70;;;;;;20449;6857;310740;-72
2023/05/07 10:01:58;;;;;;;3.20;2.50;;;28.50;37.00;;;;;;20675;6850;121058;-74
2023/05/07 10:04:28;;;;;;;2.70;2.50;;;28.50;37.80;;;;;;20491;6849;340938;-73
2023/05/07 10:06:53;;;;;;;2.00;1.90;;;28.60;37.40;;;;;;20702;6850;117365;-72
2023/05/07 10:09:19;;;;;;;2.47;2.20;;;28.60;38.30;;;;;;20489;6850;292211;-72
2023/05/07 10:11:44;;;;;;;2.77;2.13;;;28.70;35.60;;;;;;20481;6850;308947;-73
2023/05/07 10:14:10;;;;;;;1.90;1.87;;;28.90;36.00;;;;;;20701;6850;117156;-73
2023/05/07 10:16:38;;;;;;;2.10;2.00;;;28.80;37.20;;;;;;20679;6850;117058;-71
2023/05/07 10:19:04;;;;;;;2.20;2.10;;;28.70;37.00;;;;;;20702;6850;117656;-71
2023/05/07 10:21:31;;;;;;;2.60;2.20;;;28.60;37.70;;;;;;20701;6850;117167;-73
2023/05/07 10:23:59;;;;;;;2.20;1.93;;;28.40;38.20;;;;;;20700;6850;117144;-75
2023/05/07 10:26:24;;;;;;;2.20;2.10;;;28.40;38.60;;;;;;20683;6850;117127;-76
2023/05/07 10:28:50;;;;;;;2.00;1.90;;;28.30;38.10;;;;;;20675;6850;123792;-77
2023/05/07 10:31:55;;;;;;;2.05;1.90;;;28.30;38.30;;;;;;20701;6850;117682;-75
2023/05/07 10:34:20;;;;;;;2.20;1.93;;;28.30;37.70;;;;;;20699;6850;117081;-72
2023/05/07 10:36:46;;;;;;;2.20;2.10;;;28.40;37.90;;;;;;20478;6850;280445;-73
2023/05/07 10:39:11;;;;;;;2.30;2.20;;;28.70;35.50;;;;;;20496;6850;299944;-71
2023/05/07 10:41:40;;;;;;;3.13;2.20;;;29.10;34.90;;;;;;20595;6629;117041;-74
2023/05/07 10:44:13;;;;;;;2.30;2.20;;;29.10;35.50;;;;;;20746;6769;122986;-72
2023/05/07 10:46:48;;;;;;;2.40;2.20;;;28.90;35.50;;;;;;20564;6814;307620;-73
2023/05/07 10:49:24;;;;;;;2.30;2.13;;;29.00;33.70;;;;;;20842;6801;122928;-75
2023/05/07 10:52:25;;;;;;;1.97;1.87;;;29.00;34.70;;;;;;20756;6741;117256;-78
2023/05/07 10:55:21;;;;;;;2.10;2.00;;;28.80;35.00;;;;;;20878;6734;116950;-75
2023/05/07 10:57:54;;;;;;;2.12;2.03;;;28.60;35.70;;;;;;20682;6734;340528;-79
2023/05/07 11:00:33;;;;;;;2.30;2.10;;;28.90;34.40;;;;;;20538;6761;291108;-79
2023/05/07 11:03:14;;;;;;;1.90;1.77;;;29.30;33.20;;;;;;20792;6761;119596;-77
2023/05/07 11:05:44;;;;;;;1.97;1.87;;;29.30;34.40;;;;;;20767;6773;117246;-77
2023/05/07 11:08:20;;;;;;;2.50;2.10;;;29.20;35.10;;;;;;20883;6751;117149;-78
2023/05/07 11:10:59;;;;;;;2.70;2.50;;;29.00;35.30;;;;;;20779;6742;122125;-78
2023/05/07 11:13:43;;;;;;;2.20;2.10;;;29.00;35.20;;;;;;20681;6742;321602;-77
2023/05/07 11:16:20;;;;;;;2.03;1.90;;;29.20;33.20;;;;;;20883;6782;116726;-80
2023/05/07 11:18:55;;;;;;;1.80;1.70;;;29.30;34.40;;;;;;20696;6726;281731;-75
2023/05/07 11:21:31;;;;;;;2.10;2.00;;;29.40;32.80;;;;;;20795;6727;117344;-77
2023/05/07 11:24:16;;;;;;;2.03;1.93;;;29.40;33.90;;;;;;20863;6739;117378;-77
2023/05/07 11:26:48;;;;;;;1.93;1.83;;;29.20;34.10;;;;;;20642;6745;305017;-75
2023/05/07 11:29:24;;;;;;;2.53;1.90;;;29.40;33.40;;;;;;20685;6734;280423;-76
2023/05/07 11:32:00;;;;;;;2.35;1.92;;;29.70;33.10;;;;;;20555;6744;312794;-79
2023/05/07 11:34:35;;;;;;;2.30;2.10;;;30.00;32.60;;;;;;20899;6731;117618;-76
2023/05/07 11:37:13;;;;;;;2.08;1.98;;;29.90;33.10;;;;;;20614;6753;335676;-78
2023/05/07 11:39:48;;;;;;;1.90;1.80;;;29.90;33.00;;;;;;20895;6727;117100;-77
2023/05/07 11:42:34;;;;;;;4.13;2.00;;;29.70;33.20;;;;;;20576;6745;278415;-78
2023/05/07 11:45:10;;;;;;;2.15;2.05;;;29.50;31.50;;;;;;20491;6827;308195;-78
2023/05/07 11:47:49;;;;;;;2.10;2.00;;;29.40;32.90;;;;;;20585;6758;307276;-76
2023/05/07 11:50:22;;;;;;;2.10;2.00;;;29.30;34.30;;;;;;20546;6762;297885;-77
2023/05/07 11:52:58;;;;;;;2.00;1.90;;;29.30;34.30;;;;;;20686;6788;117050;-75
2023/05/07 11:55:34;;;;;;;2.87;1.87;;;29.00;34.90;;;;;;20737;6774;117582;-75
2023/05/07 11:58:12;;;;;;;2.30;2.10;;;28.60;35.30;;;;;;20505;6785;280929;-76
2023/05/07 12:00:52;;;;;;;2.33;2.07;;;28.50;35.40;;;;;;20562;6758;300374;-76
2023/05/07 12:03:31;;;;;;;2.07;1.90;;;28.50;34.70;;;;;;20641;6744;280573;-77
2023/05/07 12:06:07;;;;;;;1.65;1.55;;;28.50;34.60;;;;;;20645;6744;330734;-74
2023/05/07 12:08:43;;;;;;;1.80;1.70;;;28.50;34.70;;;;;;20916;6729;120778;-75
2023/05/07 12:11:22;;;;;;;1.97;1.87;;;28.10;35.40;;;;;;20692;6764;117434;-75
2023/05/07 12:13:57;;;;;;;2.37;2.10;;;27.60;36.30;;;;;;20738;6777;117204;-75
2023/05/07 12:16:32;;;;;;;2.10;2.00;;;27.10;37.20;;;;;;20828;6755;118977;-75
2023/05/07 12:19:12;;;;;;;2.97;1.90;;;26.70;37.90;;;;;;20805;6753;117163;-75
2023/05/07 12:21:49;;;;;;;1.90;1.80;;;26.40;38.40;;;;;;20434;6768;309073;-77
2023/05/07 12:24:21;;;;;;;2.10;2.00;;;26.50;38.10;;;;;;20574;6773;307591;-75
2023/05/07 12:26:56;;;;;;;1.80;1.70;;;26.70;37.40;;;;;;20827;6749;116778;-74
2023/05/07 12:29:33;;;;;;;2.50;2.00;;;26.40;36.30;;;;;;20692;6734;276019;-74
2023/05/07 12:32:08;;;;;;;1.97;1.77;;;26.40;36.30;;;;;;20454;6749;307602;-74
2023/05/07 12:34:44;;;;;;;1.80;1.70;;;26.60;36.90;;;;;;20816;6754;117356;-75
2023/05/07 12:37:23;;;;;;;1.90;1.80;;;26.30;37.20;;;;;;20819;6755;116955;-74
2023/05/07 12:40:08;;;;;;;1.60;1.50;;;25.90;37.90;;;;;;20814;6769;117041;-74
2023/05/07 12:42:45;;;;;;;1.80;1.70;;;25.60;38.50;;;;;;20586;6769;309949;-75
2023/05/07 12:45:22;;;;;;;1.77;1.67;;;25.60;39.00;;;;;;20772;6770;118063;-75
2023/05/07 12:47:57;;;;;;;1.70;1.60;;;25.60;38.70;;;;;;20522;6770;336909;-76
2023/05/07 12:50:38;;;;;;;2.10;2.00;;;25.80;38.90;;;;;;20763;6751;123090;-75
2023/05/07 12:53:11;;;;;;;2.50;2.30;;;25.60;39.30;;;;;;20616;6755;306461;-76
2023/05/07 12:55:44;;;;;;;2.20;2.00;;;25.60;39.10;;;;;;20629;6745;311737;-75
2023/05/07 12:58:30;;;;;;;2.08;1.90;;;25.60;38.90;;;;;;20663;6755;305768;-75
2023/05/07 13:01:05;;;;;;;2.37;2.23;;;25.60;38.70;;;;;;20559;6747;312128;-76
2023/05/07 13:03:41;;;;;;;3.27;2.20;;;25.50;38.90;;;;;;20671;6726;307413;-76
2023/05/07 13:06:20;;;;;;;2.35;2.10;;;25.40;39.60;;;;;;20654;6741;310825;-76
2023/05/07 13:08:56;;;;;;;2.30;2.10;;;24.90;41.70;;;;;;20628;6741;303137;-78
2023/05/07 13:11:31;;;;;;;4.33;2.50;;;24.90;41.70;;;;;;20538;6743;279275;-76
2023/05/07 13:14:08;;;;;;;2.97;2.20;;;24.60;41.70;;;;;;20590;6762;276978;-78
2023/05/07 13:16:43;;;;;;;3.40;2.58;;;24.10;43.00;;;;;;20534;6769;311939;-76
2023/05/07 13:19:19;;;;;;;5.47;2.30;;;24.10;43.00;;;;;;20760;6780;117403;-76
2023/05/07 13:21:55;;;;;;;4.97;4.67;;;23.50;43.40;;;;;;20660;6762;117420;-73
2023/05/07 13:24:30;;;;;;;2.13;2.03;;;22.80;44.90;;;;;;20811;6762;117554;-75
2023/05/07 13:27:06;;;;;;;2.60;2.20;;;22.20;46.40;;;;;;20785;6762;117358;-75